Time;durP1;ratioP1;P1;durP2;ratioP2;P2;SDS_P1;SDS_P2;PMS_P1;PMS_P2;Temp;Humidity;BMP_temperature;BMP_pressure;BME280_temperature;BME280_humidity;BME280_pressure;Samples;Min_cycle;Max_cycle;Signal;HPM_P1;HPM_P2
2022/08/29 00:00:12;;;;;;;12.45;8.35;;;;;;;21.81;100.00;100010.13;5033711;28;20406;-73
2022/08/29 00:02:47;;;;;;;11.25;8.27;;;;;;;21.89;100.00;100009.25;5034104;28;20041;-74
2022/08/29 00:05:15;;;;;;;10.93;8.13;;;;;;;21.77;100.00;100011.47;5033719;28;20045;-74
2022/08/29 00:07:43;;;;;;;12.48;8.50;;;;;;;21.68;100.00;100018.75;5033743;28;20053;-74
2022/08/29 00:10:12;;;;;;;9.88;8.00;;;;;;;21.68;100.00;100021.47;5033369;28;20049;-74
2022/08/29 00:12:42;;;;;;;10.60;7.85;;;;;;;21.77;100.00;100025.03;5033915;28;20045;-73
2022/08/29 00:15:12;;;;;;;10.93;8.35;;;;;;;21.71;100.00;100026.59;5033708;28;20049;-74
2022/08/29 00:17:40;;;;;;;11.93;7.78;;;;;;;21.46;100.00;100016.72;5033696;28;20451;-73
2022/08/29 00:20:11;;;;;;;11.75;7.55;;;;;;;21.57;100.00;100029.97;5033171;28;20041;-74
2022/08/29 00:22:40;;;;;;;10.18;7.70;;;;;;;21.55;100.00;100032.00;5033555;28;20041;-74
2022/08/29 00:25:09;;;;;;;11.25;8.10;;;;;;;21.49;100.00;100027.22;5033393;28;20045;-74
2022/08/29 00:27:37;;;;;;;11.00;7.82;;;;;;;21.56;100.00;100039.13;5033619;28;20052;-74
2022/08/29 00:30:09;;;;;;;9.85;7.63;;;;;;;21.56;100.00;100032.84;5033266;28;20076;-74
2022/08/29 00:32:37;;;;;;;10.73;7.97;;;;;;;21.44;100.00;100040.47;5033457;28;20496;-74
2022/08/29 00:35:09;;;;;;;10.52;7.97;;;;;;;21.44;100.00;100035.03;5015370;28;20061;-75
2022/08/29 00:37:37;;;;;;;10.45;7.78;;;;;;;21.39;100.00;100031.97;5033625;28;20037;-74
2022/08/29 00:40:10;;;;;;;10.32;8.02;;;;;;;21.43;100.00;100036.06;5033106;28;20061;-76
2022/08/29 00:42:39;;;;;;;10.27;8.32;;;;;;;21.33;100.00;100029.94;5033278;28;20478;-76
2022/08/29 00:45:11;;;;;;;11.65;7.65;;;;;;;21.33;100.00;100032.66;5033015;28;20046;-75
2022/08/29 00:47:41;;;;;;;10.88;7.47;;;;;;;21.21;100.00;100040.19;5033561;28;20057;-75
2022/08/29 00:50:18;;;;;;;9.60;7.57;;;;;;;21.09;100.00;100036.97;5032926;28;20509;-75
2022/08/29 00:52:48;;;;;;;9.23;7.65;;;;;;;21.13;100.00;100043.78;5015860;28;20045;-75
2022/08/29 00:55:21;;;;;;;11.18;8.02;;;;;;;21.05;100.00;100035.59;5032936;28;20084;-75
2022/08/29 00:58:00;;;;;;;12.50;7.88;;;;;;;21.06;100.00;100041.88;5033029;28;20099;-75
2022/08/29 01:00:31;;;;;;;10.05;7.78;;;;;;;21.09;100.00;100042.38;5033370;28;20053;-75
2022/08/29 01:03:01;;;;;;;11.02;8.40;;;;;;;21.13;100.00;100048.31;5032862;28;20042;-75
2022/08/29 01:05:29;;;;;;;11.50;8.27;;;;;;;21.07;100.00;100049.84;5015552;28;20045;-75
2022/08/29 01:07:58;;;;;;;10.73;7.85;;;;;;;21.08;100.00;100050.69;5032979;28;20050;-79
2022/08/29 01:13:13;;;;;;;11.57;8.20;;;;;;;21.16;100.00;100050.72;5032602;28;20376;-74
2022/08/29 01:15:44;;;;;;;10.45;7.75;;;;;;;21.19;100.00;100041.38;5015347;28;20052;-75
2022/08/29 01:18:15;;;;;;;10.40;7.85;;;;;;;21.20;100.00;100048.50;5032768;28;20037;-76
2022/08/29 01:20:54;;;;;;;9.57;7.35;;;;;;;21.15;100.00;100052.59;5032858;28;20049;-79
2022/08/29 01:23:31;;;;;;;9.88;7.38;;;;;;;21.13;100.00;100043.78;5032777;28;20053;-77
2022/08/29 01:26:02;;;;;;;9.40;6.88;;;;;;;21.16;100.00;100050.72;5032708;28;20406;-81
2022/08/29 01:28:34;;;;;;;9.40;6.90;;;;;;;21.03;100.00;100047.59;5032954;28;20047;-78
2022/08/29 01:31:05;;;;;;;10.45;6.80;;;;;;;21.11;100.00;100048.47;5034412;28;20045;-78
2022/08/29 01:33:38;;;;;;;10.95;6.93;;;;;;;20.98;100.00;100052.69;5037008;28;20379;-75
2022/08/29 01:36:09;;;;;;;10.43;7.60;;;;;;;20.99;100.00;100060.66;5036642;28;20053;-75
2022/08/29 01:38:38;;;;;;;10.95;7.35;;;;;;;21.00;100.00;100058.78;5036737;28;20063;-75
2022/08/29 01:41:09;;;;;;;11.82;7.57;;;;;;;20.93;100.00;100064.00;5036346;28;20132;-75
2022/08/29 01:43:42;;;;;;;9.88;7.32;;;;;;;20.96;100.00;100052.84;5036491;28;20068;-76
2022/08/29 01:46:14;;;;;;;10.60;7.03;;;;;;;20.92;100.00;100056.88;5036216;28;20120;-75
2022/08/29 01:48:44;;;;;;;10.95;6.93;;;;;;;20.84;100.00;100049.59;5018690;28;20076;-75
2022/08/29 01:51:12;;;;;;;9.30;6.93;;;;;;;20.84;100.00;100040.59;5036191;28;20048;-76
2022/08/29 01:53:41;;;;;;;9.18;7.07;;;;;;;20.82;100.00;100042.63;5036405;28;20046;-77
2022/08/29 01:56:14;;;;;;;9.18;6.72;;;;;;;20.77;100.00;100047.69;5036082;28;20045;-78
2022/08/29 01:58:44;;;;;;;9.52;7.10;;;;;;;20.71;100.00;100059.19;5036387;28;20064;-77
2022/08/29 02:01:15;;;;;;;9.68;7.22;;;;;;;20.61;100.00;100050.31;5035959;28;20045;-78
2022/08/29 02:03:44;;;;;;;9.88;7.22;;;;;;;20.51;100.00;100048.56;5036424;28;20427;-77
2022/08/29 02:06:12;;;;;;;9.75;7.13;;;;;;;20.44;100.00;100042.09;5035832;28;20041;-78
2022/08/29 02:08:42;;;;;;;10.55;7.93;;;;;;;20.39;100.00;100044.41;5035913;28;20046;-77
2022/08/29 02:11:12;;;;;;;10.52;7.50;;;;;;;20.30;100.00;100038.09;5035469;28;20409;-77
2022/08/29 02:13:44;;;;;;;11.88;7.60;;;;;;;20.28;100.00;100040.13;5035921;28;20042;-77
2022/08/29 02:16:13;;;;;;;9.00;7.57;;;;;;;20.24;100.00;100046.84;5035951;28;20041;-76
2022/08/29 02:18:41;;;;;;;12.80;7.80;;;;;;;20.26;100.00;100052.94;5035955;28;20092;-76
2022/08/29 02:21:11;;;;;;;11.63;7.45;;;;;;;20.18;100.00;100052.06;5035616;28;20136;-75
2022/08/29 02:23:40;;;;;;;9.48;7.72;;;;;;;20.12;100.00;100033.75;5035950;28;20095;-75
2022/08/29 02:26:09;;;;;;;11.18;7.60;;;;;;;20.08;100.00;100030.50;5035719;28;20049;-75
2022/08/29 02:28:40;;;;;;;10.65;8.07;;;;;;;20.05;100.00;100032.66;5035744;28;20065;-75
2022/08/29 02:31:09;;;;;;;11.75;8.50;;;;;;;20.01;100.00;100034.84;5017688;28;20057;-74
2022/08/29 02:33:38;;;;;;;10.68;8.40;;;;;;;20.09;100.00;100032.22;5035922;28;20045;-76
2022/08/29 02:36:07;;;;;;;10.35;7.55;;;;;;;20.19;100.00;100027.53;5017489;28;20053;-73
2022/08/29 02:38:38;;;;;;;13.05;8.13;;;;;;;20.12;100.00;100028.31;5035796;28;20120;-72
2022/08/29 02:41:07;;;;;;;10.02;7.72;;;;;;;20.20;100.00;100025.69;5035195;28;20445;-72
2022/08/29 02:43:43;;;;;;;9.75;7.82;;;;;;;20.02;100.00;100026.56;5034941;28;20033;-73
2022/08/29 02:46:16;;;;;;;11.00;8.80;;;;;;;20.10;100.00;100017.66;5035183;28;20103;-74
2022/08/29 02:48:45;;;;;;;11.05;7.70;;;;;;;20.21;100.00;100024.66;5035581;28;20049;-75
2022/08/29 02:51:29;;;;;;;11.00;8.18;;;;;;;20.00;100.00;100023.19;5035292;28;20053;-75
2022/08/29 02:53:58;;;;;;;11.07;9.05;;;;;;;20.11;100.00;100034.75;5035481;28;20050;-75
2022/08/29 02:56:27;;;;;;;10.40;8.00;;;;;;;20.09;100.00;100037.63;5034973;28;20042;-75
2022/08/29 02:58:57;;;;;;;11.60;8.60;;;;;;;20.10;100.00;100035.75;5035086;28;20466;-75
2022/08/29 03:01:25;;;;;;;12.38;8.77;;;;;;;20.15;100.00;100041.53;5034973;28;20063;-74
2022/08/29 03:03:54;;;;;;;12.05;8.77;;;;;;;20.15;100.00;100038.84;5035038;28;20048;-73
2022/08/29 03:06:22;;;;;;;11.65;9.20;;;;;;;20.25;100.00;100039.56;5034645;28;20041;-73
2022/08/29 03:08:51;;;;;;;10.75;8.85;;;;;;;20.13;100.00;100036.28;5034887;28;20041;-73
2022/08/29 03:11:25;;;;;;;11.15;8.60;;;;;;;20.01;100.00;100040.28;5034370;28;20045;-72
2022/08/29 03:13:53;;;;;;;11.38;9.27;;;;;;;19.93;100.00;100041.03;5034882;28;20049;-73
2022/08/29 03:16:26;;;;;;;11.02;8.65;;;;;;;19.91;100.00;100044.94;5034714;28;20049;-78
2022/08/29 03:18:55;;;;;;;11.98;9.32;;;;;;;19.91;100.00;100051.19;5034815;28;20044;-77
2022/08/29 03:21:25;;;;;;;13.13;9.20;;;;;;;19.92;100.00;100052.03;5034554;28;20128;-77
2022/08/29 03:23:55;;;;;;;12.55;9.77;;;;;;;20.00;100.00;100052.97;5034746;28;20442;-77
2022/08/29 03:26:24;;;;;;;12.02;9.10;;;;;;;19.98;100.00;100052.28;5034526;28;20052;-77
2022/08/29 03:28:53;;;;;;;11.90;9.40;;;;;;;20.03;100.00;100057.19;5016931;28;20487;-79
2022/08/29 03:31:21;;;;;;;11.63;9.50;;;;;;;20.01;100.00;100054.66;5034305;28;20089;-79
2022/08/29 03:33:51;;;;;;;13.50;9.43;;;;;;;19.86;100.00;100064.34;5034420;28;20049;-75
2022/08/29 03:36:19;;;;;;;12.45;9.90;;;;;;;19.72;100.00;100073.88;5034141;28;20509;-76
2022/08/29 03:38:47;;;;;;;13.23;9.55;;;;;;;19.70;100.00;100075.88;5034664;28;20068;-75
2022/08/29 03:41:21;;;;;;;13.98;9.35;;;;;;;19.72;100.00;100067.59;5033968;28;20048;-75
2022/08/29 03:43:49;;;;;;;11.27;9.32;;;;;;;19.68;100.00;100079.72;5034439;28;20054;-75
2022/08/29 03:46:17;;;;;;;11.65;9.35;;;;;;;19.73;100.00;100080.13;5033990;28;20500;-75
2022/08/29 03:48:45;;;;;;;12.80;10.60;;;;;;;19.74;100.00;100087.22;5034126;28;20072;-76
2022/08/29 03:51:15;;;;;;;13.15;10.07;;;;;;;19.72;100.00;100094.66;5034053;28;20037;-77
2022/08/29 03:53:43;;;;;;;14.68;10.35;;;;;;;19.96;100.00;100097.56;5034180;28;20073;-75
2022/08/29 03:56:13;;;;;;;16.52;11.10;;;;;;;19.87;100.00;100098.50;5033843;28;20045;-76
2022/08/29 03:58:46;;;;;;;13.83;10.60;;;;;;;19.90;100.00;100105.50;5033990;28;20121;-75
2022/08/29 04:01:23;;;;;;;13.85;10.60;;;;;;;19.78;100.00;100102.16;5033618;28;20279;-75
2022/08/29 04:03:52;;;;;;;13.68;10.68;;;;;;;19.80;100.00;100105.56;5034227;28;20045;-75
2022/08/29 04:06:23;;;;;;;12.90;10.23;;;;;;;19.82;100.00;100095.44;5033644;28;20045;-75
2022/08/29 04:08:52;;;;;;;15.32;10.45;;;;;;;19.75;100.00;100107.88;5033916;28;20064;-75
2022/08/29 04:11:22;;;;;;;15.65;11.23;;;;;;;19.81;100.00;100104.56;5033346;28;20046;-76
2022/08/29 04:13:51;;;;;;;12.95;9.82;;;;;;;19.85;100.00;100108.66;5033652;28;20046;-76
2022/08/29 04:16:21;;;;;;;15.38;10.98;;;;;;;19.99;100.00;100110.81;5033551;28;20048;-78
2022/08/29 04:18:50;;;;;;;14.15;11.15;;;;;;;19.94;100.00;100110.41;5034007;28;20107;-77
2022/08/29 04:21:18;;;;;;;13.77;10.52;;;;;;;19.99;100.00;100108.09;5033231;28;20046;-76
2022/08/29 04:23:49;;;;;;;12.02;10.10;;;;;;;19.99;100.00;100109.97;5033636;28;20076;-76
2022/08/29 04:26:19;;;;;;;13.35;10.60;;;;;;;20.01;100.00;100119.63;5033118;28;20103;-76
2022/08/29 04:29:05;;;;;;;15.45;10.63;;;;;;;19.91;100.00;100115.31;5033706;28;20116;-76
2022/08/29 04:31:35;;;;;;;14.32;10.55;;;;;;;19.98;100.00;100114.53;5033160;28;20049;-75
2022/08/29 04:34:04;;;;;;;15.25;10.18;;;;;;;19.96;100.00;100116.53;5033441;28;20464;-75
2022/08/29 04:36:34;;;;;;;11.80;10.45;;;;;;;20.04;100.00;100121.16;5033121;28;20440;-75
2022/08/29 04:39:05;;;;;;;14.65;10.32;;;;;;;20.04;100.00;100120.31;5033430;28;20076;-75
2022/08/29 04:41:33;;;;;;;13.00;10.07;;;;;;;20.22;100.00;100123.84;5033210;28;20041;-73
2022/08/29 04:44:02;;;;;;;13.82;10.10;;;;;;;20.35;100.00;100129.69;5033111;28;20045;-74
2022/08/29 04:46:31;;;;;;;12.55;10.00;;;;;;;20.42;100.00;100122.66;5033000;28;20885;-74
2022/08/29 04:49:01;;;;;;;15.80;9.73;;;;;;;20.46;100.00;100125.91;5015330;28;20115;-74
2022/08/29 04:51:33;;;;;;;13.88;9.93;;;;;;;20.44;100.00;100117.94;5032844;28;20045;-73
2022/08/29 04:54:02;;;;;;;12.80;10.50;;;;;;;20.25;100.00;100107.28;5015539;28;20052;-73
2022/08/29 04:56:32;;;;;;;15.82;10.43;;;;;;;20.48;100.00;100127.47;5032876;28;20118;-74
2022/08/29 04:59:01;;;;;;;11.60;8.85;;;;;;;20.31;100.00;100133.75;5033072;28;20375;-74
2022/08/29 05:01:30;;;;;;;12.35;8.65;;;;;;;20.46;100.00;100131.31;5032760;28;20068;-74
2022/08/29 05:03:58;;;;;;;11.55;9.73;;;;;;;20.50;100.00;100133.56;5033119;28;20045;-75
2022/08/29 05:06:27;;;;;;;12.85;10.02;;;;;;;20.72;100.00;100131.34;5032389;28;20048;-75
2022/08/29 05:08:57;;;;;;;16.08;10.48;;;;;;;20.77;100.00;100123.59;5033126;28;20042;-74
2022/08/29 05:11:29;;;;;;;11.63;9.10;;;;;;;20.68;100.00;100125.41;5032563;28;20080;-75
2022/08/29 05:13:59;;;;;;;11.95;9.70;;;;;;;20.88;100.00;100119.75;5032861;28;20069;-74
2022/08/29 05:16:29;;;;;;;11.93;9.13;;;;;;;20.72;100.00;100134.91;5032630;28;20453;-75
2022/08/29 05:18:59;;;;;;;11.35;9.15;;;;;;;20.89;100.00;100125.00;5032874;28;20046;-75
2022/08/29 05:21:30;;;;;;;11.57;8.88;;;;;;;21.15;100.00;100133.94;5014993;28;20506;-75
2022/08/29 05:24:04;;;;;;;11.38;9.07;;;;;;;21.22;100.00;100138.69;5032823;28;20048;-75
2022/08/29 05:26:34;;;;;;;11.15;8.85;;;;;;;21.41;100.00;100139.31;5032483;28;20048;-76
2022/08/29 05:29:06;;;;;;;11.55;8.57;;;;;;;21.17;100.00;100143.78;5032957;28;20041;-76
2022/08/29 05:31:36;;;;;;;11.77;9.38;;;;;;;21.13;100.00;100141.41;5015065;28;20052;-77
2022/08/29 05:34:05;;;;;;;13.15;9.40;;;;;;;21.53;100.00;100148.00;5030795;28;20041;-75
2022/08/29 05:36:53;;;;;;;13.50;9.20;;;;;;;21.76;100.00;100136.53;5032807;28;20124;-74
2022/08/29 05:39:21;;;;;;;11.00;8.63;;;;;;;22.03;100.00;100133.50;5031998;28;20042;-75
2022/08/29 05:41:50;;;;;;;13.30;8.73;;;;;;;22.14;100.00;100135.06;5032679;28;20041;-75
2022/08/29 05:44:19;;;;;;;11.23;8.43;;;;;;;21.59;100.00;100136.47;5032269;28;20052;-76
2022/08/29 05:46:48;;;;;;;10.77;8.02;;;;;;;21.78;100.00;100140.75;5042441;28;20371;-75
2022/08/29 05:49:16;;;;;;;11.35;8.48;;;;;;;22.01;100.00;100146.41;5050865;28;20055;-77
2022/08/29 05:51:45;;;;;;;12.98;8.57;;;;;;;22.16;100.00;100144.72;5052252;28;20037;-76
2022/08/29 05:54:13;;;;;;;10.48;7.95;;;;;;;22.71;100.00;100148.59;5052541;28;20047;-76
2022/08/29 05:56:41;;;;;;;10.82;7.82;;;;;;;22.37;100.00;100140.66;5051559;28;20433;-76
2022/08/29 05:59:10;;;;;;;9.88;7.65;;;;;;;21.89;100.00;100142.31;5052428;28;20057;-75
2022/08/29 06:01:41;;;;;;;10.80;7.93;;;;;;;22.05;100.00;100136.91;5051968;28;20076;-74
2022/08/29 06:04:09;;;;;;;10.45;7.63;;;;;;;22.30;100.00;100143.22;5052319;28;20398;-74
2022/08/29 06:06:40;;;;;;;10.60;7.53;;;;;;;22.75;100.00;100145.34;5051709;28;20045;-74
2022/08/29 06:09:09;;;;;;;9.95;7.03;;;;;;;23.39;100.00;100138.03;5052177;28;20049;-72
2022/08/29 06:11:37;;;;;;;17.95;7.60;;;;;;;23.93;100.00;100151.69;5050165;28;20486;-76
2022/08/29 06:14:05;;;;;;;8.85;6.95;;;;;;;23.91;100.00;100148.28;5052179;28;20091;-79
2022/08/29 06:16:34;;;;;;;9.95;7.40;;;;;;;23.83;100.00;100150.22;5051763;28;20045;-78
2022/08/29 06:19:03;;;;;;;10.25;7.00;;;;;;;24.21;100.00;100159.28;5053814;28;20045;-75
2022/08/29 06:21:32;;;;;;;8.93;6.30;;;;;;;23.74;100.00;100168.50;5055471;28;20045;-72
2022/08/29 06:24:00;;;;;;;9.60;6.68;;;;;;;24.02;100.00;100165.22;5055625;28;20052;-80
2022/08/29 06:26:30;;;;;;;10.77;7.20;;;;;;;25.11;100.00;100164.81;5054972;28;20076;-79
2022/08/29 06:28:58;;;;;;;11.38;6.80;;;;;;;25.45;100.00;100169.66;5055755;28;20383;-76
2022/08/29 06:31:28;;;;;;;9.85;6.15;;;;;;;25.21;100.00;100170.81;5053521;28;20072;-75
2022/08/29 06:33:59;;;;;;;9.43;6.05;;;;;;;25.33;100.00;100184.81;5055333;28;20037;-76
2022/08/29 06:36:30;;;;;;;7.95;5.82;;;;;;;25.21;100.00;100180.88;5055333;28;20133;-75
2022/08/29 06:38:59;;;;;;;8.00;6.22;;;;;;;25.56;100.00;100179.22;5055257;28;20052;-77
2022/08/29 06:41:28;;;;;;;9.23;5.60;;;;;;;25.73;100.00;100188.09;5056053;28;20543;-74
2022/08/29 06:43:57;;;;;;;9.18;5.55;;;;;;;25.61;100.00;100183.09;5054997;28;20053;-73
2022/08/29 06:46:28;;;;;;;7.93;5.72;;;;;;;25.17;100.00;100182.28;5055083;28;20049;-74
2022/08/29 06:48:58;;;;;;;9.90;6.07;;;;;;;25.46;100.00;100182.25;5054004;28;20142;-75
2022/08/29 06:51:31;;;;;;;7.50;5.72;;;;;;;24.87;100.00;100182.25;5054824;28;20041;-76
2022/08/29 06:54:00;;;;;;;11.30;6.18;;;;;;;25.11;100.00;100189.38;5055168;28;20077;-74
2022/08/29 06:56:31;;;;;;;9.35;5.53;;;;;;;25.61;100.00;100190.44;5053407;28;20490;-73
2022/08/29 06:58:59;;;;;;;10.73;5.85;;;;;;;25.68;100.00;100197.69;5055139;28;20485;-73
2022/08/29 07:01:27;;;;;;;8.57;5.97;;;;;;;24.85;100.00;100195.22;5053651;28;20474;-78
2022/08/29 07:03:57;;;;;;;8.68;6.25;;;;;;;23.69;100.00;100198.13;5054804;28;20563;-77
2022/08/29 07:06:28;;;;;;;8.50;5.75;;;;;;;23.63;100.00;100187.94;5053428;28;20049;-74
2022/08/29 07:08:57;;;;;;;9.95;6.38;;;;;;;24.01;100.00;100196.22;5053242;28;20076;-77
2022/08/29 07:11:26;;;;;;;9.70;6.07;;;;;;;23.98;100.00;100192.00;5052841;28;20525;-76
2022/08/29 07:13:57;;;;;;;7.10;6.03;;;;;;;24.65;100.00;100199.50;5052862;28;20041;-76
2022/08/29 07:16:26;;;;;;;9.57;5.90;;;;;;;24.25;100.00;100201.53;5054439;28;20049;-76
2022/08/29 07:18:54;;;;;;;9.23;6.18;;;;;;;24.33;100.00;100196.06;5054680;28;20474;-75
2022/08/29 07:21:24;;;;;;;10.35;6.10;;;;;;;24.54;100.00;100198.94;5054186;28;20482;-76
2022/08/29 07:23:55;;;;;;;8.38;6.22;;;;;;;24.27;100.00;100204.91;5054905;28;20045;-75
2022/08/29 07:26:25;;;;;;;8.95;5.97;;;;;;;24.37;100.00;100202.81;5054255;28;20052;-76
2022/08/29 07:28:56;;;;;;;9.02;5.50;;;;;;;24.35;100.00;100202.16;5053254;28;20140;-76
2022/08/29 07:31:25;;;;;;;9.27;5.82;;;;;;;24.34;100.00;100205.91;5053037;28;20053;-76
2022/08/29 07:33:58;;;;;;;8.40;5.82;;;;;;;24.57;100.00;100210.50;5053207;28;20095;-75
2022/08/29 07:36:30;;;;;;;7.57;5.93;;;;;;;24.35;100.00;100207.59;5053015;28;20410;-75
2022/08/29 07:39:01;;;;;;;8.38;5.55;;;;;;;24.59;100.00;100205.69;5054346;28;20501;-75
2022/08/29 07:41:29;;;;;;;8.85;5.95;;;;;;;24.40;100.00;100207.91;5053901;28;20584;-76
2022/08/29 07:43:57;;;;;;;11.10;5.95;;;;;;;24.41;100.00;100217.75;5054132;28;20049;-75
2022/08/29 07:46:26;;;;;;;8.68;6.10;;;;;;;24.53;100.00;100216.31;5052127;28;20057;-76
2022/08/29 07:48:55;;;;;;;8.52;5.82;;;;;;;24.49;100.00;100216.84;5054098;28;20052;-75
2022/08/29 07:51:24;;;;;;;9.35;5.90;;;;;;;24.26;100.00;100223.13;5053619;28;20493;-76
2022/08/29 07:53:53;;;;;;;9.85;5.80;;;;;;;24.33;100.00;100211.56;5052741;28;20076;-75
2022/08/29 07:56:25;;;;;;;8.88;5.72;;;;;;;24.12;100.00;100212.16;5052481;28;20532;-75
2022/08/29 07:58:54;;;;;;;7.00;5.47;;;;;;;24.43;100.00;100213.00;5053907;28;20037;-76
2022/08/29 08:01:23;;;;;;;7.82;5.82;;;;;;;24.48;100.00;100216.00;5053236;28;20548;-77
2022/08/29 08:03:52;;;;;;;8.05;5.75;;;;;;;24.49;100.00;100219.59;5052231;28;20118;-75
2022/08/29 08:06:23;;;;;;;6.75;5.53;;;;;;;24.81;100.00;100221.19;5053511;28;20052;-75
2022/08/29 08:08:55;;;;;;;8.90;5.53;;;;;;;24.48;100.00;100221.47;5053578;28;20052;-76
2022/08/29 08:11:26;;;;;;;7.03;5.40;;;;;;;24.62;100.00;100221.72;5051691;28;20041;-78
2022/08/29 08:13:56;;;;;;;6.85;5.43;;;;;;;24.56;100.00;100220.56;5053171;28;20052;-75
2022/08/29 08:16:26;;;;;;;7.07;5.53;;;;;;;24.62;100.00;100216.25;5053111;28;20048;-76
2022/08/29 08:18:56;;;;;;;9.07;5.43;;;;;;;24.69;100.00;100222.66;5052140;28;20052;-76
2022/08/29 08:21:25;;;;;;;8.57;6.15;;;;;;;24.60;100.00;100218.28;5053098;28;20072;-76
2022/08/29 08:23:54;;;;;;;7.72;5.50;;;;;;;24.76;100.00;100220.88;5053115;28;20072;-76
2022/08/29 08:26:22;;;;;;;7.20;5.45;;;;;;;24.70;100.00;100214.28;5053548;28;20089;-75
2022/08/29 08:28:53;;;;;;;6.45;5.22;;;;;;;24.76;100.00;100216.28;5053508;28;20204;-76
2022/08/29 08:31:22;;;;;;;11.70;5.70;;;;;;;24.71;100.00;100212.44;5052293;28;20135;-75
2022/08/29 08:33:51;;;;;;;7.30;5.28;;;;;;;24.57;100.00;100213.22;5052911;28;20084;-75
2022/08/29 08:36:23;;;;;;;9.93;5.30;;;;;;;24.95;100.00;100217.63;5052965;28;20055;-75
2022/08/29 08:38:53;;;;;;;6.97;4.93;;;;;;;24.95;100.00;100225.81;5052056;28;20068;-75
2022/08/29 08:41:30;;;;;;;10.35;5.57;;;;;;;24.80;100.00;100219.47;5052424;28;20067;-75
2022/08/29 08:44:05;;;;;;;7.60;5.25;;;;;;;24.85;100.00;100230.69;5053221;28;20119;-75
2022/08/29 08:46:37;;;;;;;9.52;5.43;;;;;;;24.83;100.00;100227.31;5052833;28;20106;-76
2022/08/29 08:49:12;;;;;;;10.77;5.60;;;;;;;24.86;100.00;100223.34;5053092;28;20482;-75
2022/08/29 08:51:46;;;;;;;8.80;5.63;;;;;;;24.98;100.00;100225.44;5052985;28;20611;-75
2022/08/29 08:54:20;;;;;;;7.32;5.65;;;;;;;25.17;100.00;100223.22;5052644;28;20041;-75
2022/08/29 08:56:55;;;;;;;8.52;5.30;;;;;;;25.26;100.00;100224.84;5052516;28;20048;-75
2022/08/29 08:59:33;;;;;;;6.63;5.18;;;;;;;25.39;100.00;100220.41;5051695;28;20053;-76
2022/08/29 09:02:08;;;;;;;;;;;;;;;25.34;100.00;100217.41;5053279;28;20098;-76
2022/08/29 09:04:56;;;;;;;8.50;5.22;;;;;;;25.38;100.00;100212.41;5052734;28;20262;-76
2022/08/29 09:07:42;;;;;;;6.97;4.82;;;;;;;25.40;100.00;100219.38;5051899;28;20079;-76
2022/08/29 09:10:21;;;;;;;8.20;5.28;;;;;;;25.50;100.00;100216.38;5052804;28;20041;-76
2022/08/29 09:13:00;;;;;;;7.40;5.63;;;;;;;25.49;100.00;100211.09;5052583;28;20037;-76
2022/08/29 09:15:38;;;;;;;8.00;5.20;;;;;;;25.60;100.00;100214.19;5052624;28;20124;-76
2022/08/29 09:18:09;;;;;;;7.47;5.03;;;;;;;25.60;100.00;100211.44;5052694;28;20090;-75
2022/08/29 09:20:42;;;;;;;9.43;5.30;;;;;;;25.69;100.00;100210.31;5052721;28;20474;-76
2022/08/29 09:23:19;;;;;;;8.95;5.72;;;;;;;25.96;100.00;100213.34;5052938;28;20450;-76
2022/08/29 09:25:47;;;;;;;10.07;5.72;;;;;;;25.68;100.00;100208.63;5052370;28;20055;-76
2022/08/29 09:28:16;;;;;;;7.85;5.22;;;;;;;25.74;100.00;100214.38;5051355;28;20052;-76
2022/08/29 09:31:17;;;;;;;8.50;4.97;;;;;;;25.82;100.00;100214.25;5052276;28;20061;-76
2022/08/29 09:33:49;;;;;;;7.93;5.20;;;;;;;25.90;100.00;100204.06;5051047;28;20107;-76
2022/08/29 09:36:39;;;;;;;6.70;5.07;;;;;;;25.98;100.00;100208.56;5052743;28;20044;-76
2022/08/29 09:39:18;;;;;;;8.60;5.05;;;;;;;25.91;100.00;100208.50;5051432;28;20094;-75
2022/08/29 09:41:51;;;;;;;6.47;5.03;;;;;;;26.06;100.00;100204.88;5052390;28;20068;-76
2022/08/29 09:44:24;;;;;;;6.80;5.55;;;;;;;26.14;100.00;100208.31;5051653;28;20135;-75
2022/08/29 09:47:10;;;;;;;8.45;5.53;;;;;;;26.39;100.00;100210.69;5050690;28;20053;-76
2022/08/29 09:49:40;;;;;;;8.38;6.10;;;;;;;26.29;100.00;100205.53;5052161;28;20051;-76
2022/08/29 09:52:12;;;;;;;8.45;6.07;;;;;;;26.68;100.00;100207.81;5054326;28;20045;-76
2022/08/29 09:54:41;;;;;;;7.35;5.40;;;;;;;26.61;100.00;100204.16;5055878;28;20478;-76
2022/08/29 09:57:20;;;;;;;7.40;5.53;;;;;;;26.71;100.00;100203.81;5056094;28;20053;-75
2022/08/29 10:00:05;;;;;;;7.18;5.55;;;;;;;26.73;100.00;100204.47;5054740;28;20462;-76
2022/08/29 10:02:44;;;;;;;6.85;5.40;;;;;;;26.96;100.00;100206.97;5054677;28;20071;-76
2022/08/29 10:05:29;;;;;;;7.97;5.22;;;;;;;27.14;100.00;100203.75;5056171;28;20053;-76
2022/08/29 10:07:57;;;;;;;8.30;5.30;;;;;;;27.18;100.00;100214.09;5055891;28;20041;-76
2022/08/29 10:10:31;;;;;;;8.75;5.15;;;;;;;27.44;100.00;100204.34;5055703;28;20045;-76
2022/08/29 10:13:06;;;;;;;7.97;5.97;;;;;;;27.66;100.00;100208.69;5056139;28;20489;-76
2022/08/29 10:15:42;;;;;;;8.15;5.30;;;;;;;27.42;100.00;100206.47;5054250;28;20048;-76
2022/08/29 10:18:29;;;;;;;8.13;5.03;;;;;;;27.29;100.00;100210.78;5055803;28;20045;-76
2022/08/29 10:21:09;;;;;;;7.15;5.28;;;;;;;26.91;100.00;100206.72;5056110;28;20143;-75
2022/08/29 10:23:46;;;;;;;7.43;4.95;;;;;;;27.21;100.00;100215.56;5055526;28;20045;-76
2022/08/29 10:26:26;;;;;;;7.20;5.05;;;;;;;27.15;100.00;100214.50;5054327;28;20053;-76
2022/08/29 10:29:01;;;;;;;9.85;5.20;;;;;;;27.37;100.00;100207.03;5055254;28;20041;-75
2022/08/29 10:31:38;;;;;;;8.73;4.95;;;;;;;27.44;100.00;100207.94;5054437;28;20041;-75
2022/08/29 10:34:27;;;;;;;7.20;5.22;;;;;;;27.53;100.00;100208.63;5055132;28;20037;-76
2022/08/29 10:37:02;;;;;;;9.18;4.75;;;;;;;27.70;100.00;100203.63;5054981;28;20052;-76
2022/08/29 10:39:39;;;;;;;6.80;5.25;;;;;;;27.98;100.00;100211.75;5054095;28;20049;-76
2022/08/29 10:42:12;;;;;;;6.30;4.63;;;;;;;27.96;100.00;100209.22;5055179;28;20045;-76
2022/08/29 10:44:55;;;;;;;9.27;4.82;;;;;;;27.44;100.00;100207.94;5055328;28;20052;-76
2022/08/29 10:47:33;;;;;;;7.80;4.85;;;;;;;27.25;100.00;100205.94;5053667;28;20081;-76
2022/08/29 10:50:14;;;;;;;5.95;4.45;;;;;;;27.47;100.00;100204.78;5053987;28;20055;-76
2022/08/29 10:53:06;;;;;;;6.80;4.72;;;;;;;27.60;100.00;100206.72;5054112;28;20047;-76
2022/08/29 10:55:52;;;;;;;8.50;4.75;;;;;;;27.08;100.00;100205.41;5053836;28;20077;-76
2022/08/29 10:58:33;;;;;;;6.93;4.65;;;;;;;27.44;100.00;100194.25;5053963;28;20132;-76
2022/08/29 11:01:10;;;;;;;6.18;4.60;;;;;;;27.44;100.00;100198.88;5055343;28;20442;-76
2022/08/29 11:03:47;;;;;;;6.57;4.80;;;;;;;27.33;100.00;100198.41;5052823;28;20056;-76
2022/08/29 11:06:22;;;;;;;7.63;4.65;;;;;;;27.28;100.00;100194.56;5053636;28;20473;-76
2022/08/29 11:08:57;;;;;;;6.03;4.32;;;;;;;27.43;100.00;100191.72;5053456;28;20060;-76
2022/08/29 11:11:28;;;;;;;7.28;4.35;;;;;;;27.26;100.00;100197.50;5053589;28;20158;-76
2022/08/29 11:14:02;;;;;;;5.65;4.10;;;;;;;27.45;100.00;100189.59;5053103;28;20528;-76
2022/08/29 11:16:40;;;;;;;5.90;3.92;;;;;;;27.55;100.00;100185.44;5054702;28;20048;-77
2022/08/29 11:19:16;;;;;;;4.75;3.72;;;;;;;27.64;100.00;100184.22;5054787;28;20414;-76
2022/08/29 11:21:56;;;;;;;6.88;4.00;;;;;;;27.72;100.00;100182.38;5054350;28;20037;-76
2022/08/29 11:24:28;;;;;;;6.82;4.10;;;;;;;27.78;100.00;100178.78;5054730;28;20041;-76
2022/08/29 11:27:09;;;;;;;7.05;4.20;;;;;;;28.00;100.00;100180.34;5053155;28;20127;-76
2022/08/29 11:29:46;;;;;;;6.78;3.80;;;;;;;27.94;100.00;100179.28;5054404;28;20037;-76
2022/08/29 11:32:25;;;;;;;6.63;4.30;;;;;;;27.73;100.00;100176.69;5054507;28;20110;-76
2022/08/29 11:35:06;;;;;;;6.53;3.80;;;;;;;27.63;100.00;100171.56;5052979;28;20052;-76